Terminal Aerodrome Forecast
Issued by NWS

Home | Current Version | Previous Version | Graphics & Text | Print | Product List | Glossary On
Versions: 1 2 3 4 5 6 7 8 9 10 11 12 13 14 15 16 17 18 19
000
FTUS43 KTOP 261142
TAFMHK
TAF
KMHK 261142Z 2612/2712 04006KT 6SM -RA BR SCT005 BKN040
      TEMPO 2612/2613 4SM RA BR BKN004
     FM261400 07005KT 4SM BR BKN008
     FM261500 10005KT P6SM BKN012
     FM261700 13006KT P6SM BKN025
     FM262200 15007KT P6SM SCT030
     FM270200 12005KT P6SM VCTS OVC020CB=

USA.gov is the U.S. government's official web portal to all federal, state and local government web resources and services.